sensor_id;sensor_type;location;lat;lon;timestamp;P1;durP1;ratioP1;P2;durP2;ratioP2
31045;SDS011;17711;54.018;9.300;2023-06-22T00:00:40;8.60;;;8.30;;
31045;SDS011;17711;54.018;9.300;2023-06-22T00:03:12;8.27;;;7.97;;
31045;SDS011;17711;54.018;9.300;2023-06-22T00:05:41;8.45;;;8.15;;
31045;SDS011;17711;54.018;9.300;2023-06-22T00:08:10;8.38;;;8.07;;
31045;SDS011;17711;54.018;9.300;2023-06-22T00:10:38;8.32;;;8.02;;
31045;SDS011;17711;54.018;9.300;2023-06-22T00:13:08;8.00;;;7.70;;
31045;SDS011;17711;54.018;9.300;2023-06-22T00:15:38;8.30;;;8.00;;
31045;SDS011;17711;54.018;9.300;2023-06-22T00:18:09;8.43;;;8.13;;
31045;SDS011;17711;54.018;9.300;2023-06-22T00:20:41;8.20;;;7.90;;
31045;SDS011;17711;54.018;9.300;2023-06-22T00:23:12;8.10;;;7.80;;
31045;SDS011;17711;54.018;9.300;2023-06-22T00:25:43;7.70;;;7.45;;
31045;SDS011;17711;54.018;9.300;2023-06-22T00:28:12;8.20;;;7.90;;
31045;SDS011;17711;54.018;9.300;2023-06-22T00:30:40;8.20;;;7.90;;
31045;SDS011;17711;54.018;9.300;2023-06-22T00:33:09;8.20;;;7.90;;
31045;SDS011;17711;54.018;9.300;2023-06-22T00:35:44;8.20;;;7.90;;
31045;SDS011;17711;54.018;9.300;2023-06-22T00:38:12;7.93;;;7.63;;
31045;SDS011;17711;54.018;9.300;2023-06-22T00:40:41;8.07;;;7.78;;
31045;SDS011;17711;54.018;9.300;2023-06-22T00:43:10;8.38;;;8.07;;
31045;SDS011;17711;54.018;9.300;2023-06-22T00:45:39;7.90;;;7.60;;
31045;SDS011;17711;54.018;9.300;2023-06-22T00:48:08;8.07;;;7.78;;
31045;SDS011;17711;54.018;9.300;2023-06-22T00:50:37;8.40;;;8.10;;
31045;SDS011;17711;54.018;9.300;2023-06-22T00:53:08;8.15;;;7.85;;
31045;SDS011;17711;54.018;9.300;2023-06-22T00:55:41;8.33;;;8.03;;
31045;SDS011;17711;54.018;9.300;2023-06-22T00:58:12;8.27;;;7.97;;
31045;SDS011;17711;54.018;9.300;2023-06-22T01:00:40;8.40;;;8.10;;
31045;SDS011;17711;54.018;9.300;2023-06-22T01:03:09;8.18;;;7.88;;
31045;SDS011;17711;54.018;9.300;2023-06-22T01:05:39;8.30;;;8.00;;
31045;SDS011;17711;54.018;9.300;2023-06-22T01:08:21;8.38;;;8.07;;
31045;SDS011;17711;54.018;9.300;2023-06-22T01:11:00;8.40;;;8.10;;
31045;SDS011;17711;54.018;9.300;2023-06-22T01:13:35;8.40;;;8.10;;
31045;SDS011;17711;54.018;9.300;2023-06-22T01:16:10;8.48;;;8.18;;
31045;SDS011;17711;54.018;9.300;2023-06-22T01:18:46;8.35;;;8.05;;
31045;SDS011;17711;54.018;9.300;2023-06-22T01:21:21;9.57;;;9.27;;
31045;SDS011;17711;54.018;9.300;2023-06-22T01:23:54;8.50;;;8.20;;
31045;SDS011;17711;54.018;9.300;2023-06-22T01:26:35;8.50;;;8.20;;
31045;SDS011;17711;54.018;9.300;2023-06-22T01:29:08;8.32;;;8.02;;
31045;SDS011;17711;54.018;9.300;2023-06-22T01:31:40;8.27;;;7.97;;
31045;SDS011;17711;54.018;9.300;2023-06-22T01:34:10;7.90;;;7.60;;
31045;SDS011;17711;54.018;9.300;2023-06-22T01:36:40;8.98;;;8.65;;
31045;SDS011;17711;54.018;9.300;2023-06-22T01:39:10;8.48;;;8.18;;
31045;SDS011;17711;54.018;9.300;2023-06-22T01:41:40;8.50;;;8.20;;
31045;SDS011;17711;54.018;9.300;2023-06-22T01:44:11;8.30;;;8.00;;
31045;SDS011;17711;54.018;9.300;2023-06-22T01:46:40;8.27;;;7.97;;
31045;SDS011;17711;54.018;9.300;2023-06-22T01:49:09;7.95;;;7.65;;
31045;SDS011;17711;54.018;9.300;2023-06-22T01:51:38;8.07;;;7.78;;
31045;SDS011;17711;54.018;9.300;2023-06-22T01:54:07;8.05;;;7.75;;
31045;SDS011;17711;54.018;9.300;2023-06-22T01:56:36;7.93;;;7.63;;
31045;SDS011;17711;54.018;9.300;2023-06-22T01:59:06;7.90;;;7.60;;
31045;SDS011;17711;54.018;9.300;2023-06-22T02:01:44;7.40;;;7.20;;
31045;SDS011;17711;54.018;9.300;2023-06-22T02:04:19;9.15;;;8.85;;
31045;SDS011;17711;54.018;9.300;2023-06-22T02:06:49;7.80;;;7.53;;
31045;SDS011;17711;54.018;9.300;2023-06-22T02:09:22;9.10;;;8.80;;
31045;SDS011;17711;54.018;9.300;2023-06-22T02:11:53;8.10;;;7.80;;
31045;SDS011;17711;54.018;9.300;2023-06-22T02:14:23;9.30;;;9.00;;
31045;SDS011;17711;54.018;9.300;2023-06-22T02:16:55;8.40;;;8.10;;
31045;SDS011;17711;54.018;9.300;2023-06-22T02:19:26;9.20;;;8.90;;
31045;SDS011;17711;54.018;9.300;2023-06-22T02:21:59;8.23;;;7.93;;
31045;SDS011;17711;54.018;9.300;2023-06-22T02:24:28;9.73;;;9.43;;
31045;SDS011;17711;54.018;9.300;2023-06-22T02:26:58;8.10;;;7.80;;
31045;SDS011;17711;54.018;9.300;2023-06-22T02:29:27;9.30;;;9.00;;
31045;SDS011;17711;54.018;9.300;2023-06-22T02:31:58;8.57;;;8.27;;
31045;SDS011;17711;54.018;9.300;2023-06-22T02:34:27;9.45;;;9.15;;
31045;SDS011;17711;54.018;9.300;2023-06-22T02:36:55;8.95;;;8.65;;
31045;SDS011;17711;54.018;9.300;2023-06-22T02:39:26;9.88;;;9.57;;
31045;SDS011;17711;54.018;9.300;2023-06-22T02:41:55;8.27;;;7.97;;
31045;SDS011;17711;54.018;9.300;2023-06-22T02:44:24;9.65;;;9.35;;
31045;SDS011;17711;54.018;9.300;2023-06-22T02:46:52;8.60;;;8.30;;
31045;SDS011;17711;54.018;9.300;2023-06-22T02:49:23;10.40;;;10.00;;
31045;SDS011;17711;54.018;9.300;2023-06-22T02:51:52;8.68;;;8.38;;
31045;SDS011;17711;54.018;9.300;2023-06-22T02:54:21;9.85;;;9.55;;
31045;SDS011;17711;54.018;9.300;2023-06-22T02:56:50;8.40;;;8.10;;
31045;SDS011;17711;54.018;9.300;2023-06-22T02:59:19;9.93;;;9.63;;
31045;SDS011;17711;54.018;9.300;2023-06-22T03:01:50;8.68;;;8.38;;
31045;SDS011;17711;54.018;9.300;2023-06-22T03:04:19;10.50;;;10.10;;
31045;SDS011;17711;54.018;9.300;2023-06-22T03:06:49;8.80;;;8.50;;
31045;SDS011;17711;54.018;9.300;2023-06-22T03:09:18;10.30;;;9.90;;
31045;SDS011;17711;54.018;9.300;2023-06-22T03:11:47;9.40;;;9.10;;
31045;SDS011;17711;54.018;9.300;2023-06-22T03:14:16;10.23;;;9.85;;
31045;SDS011;17711;54.018;9.300;2023-06-22T03:16:45;9.10;;;8.80;;
31045;SDS011;17711;54.018;9.300;2023-06-22T03:19:13;9.52;;;9.23;;
31045;SDS011;17711;54.018;9.300;2023-06-22T03:21:42;8.88;;;8.57;;
31045;SDS011;17711;54.018;9.300;2023-06-22T03:24:12;8.77;;;8.48;;
31045;SDS011;17711;54.018;9.300;2023-06-22T03:26:41;9.25;;;8.95;;
31045;SDS011;17711;54.018;9.300;2023-06-22T03:29:13;9.02;;;8.73;;
31045;SDS011;17711;54.018;9.300;2023-06-22T03:31:42;8.85;;;8.55;;
31045;SDS011;17711;54.018;9.300;2023-06-22T03:34:11;8.88;;;8.57;;
31045;SDS011;17711;54.018;9.300;2023-06-22T03:36:40;9.23;;;8.93;;
31045;SDS011;17711;54.018;9.300;2023-06-22T03:39:13;9.55;;;9.25;;
31045;SDS011;17711;54.018;9.300;2023-06-22T03:41:42;9.65;;;9.35;;
31045;SDS011;17711;54.018;9.300;2023-06-22T03:44:10;9.65;;;9.35;;
31045;SDS011;17711;54.018;9.300;2023-06-22T03:46:39;9.52;;;9.23;;
31045;SDS011;17711;54.018;9.300;2023-06-22T03:49:08;9.75;;;9.45;;
31045;SDS011;17711;54.018;9.300;2023-06-22T03:51:36;9.70;;;9.40;;
31045;SDS011;17711;54.018;9.300;2023-06-22T03:54:05;9.73;;;9.43;;
31045;SDS011;17711;54.018;9.300;2023-06-22T03:56:35;16.50;;;15.90;;
31045;SDS011;17711;54.018;9.300;2023-06-22T03:59:04;9.70;;;9.40;;
31045;SDS011;17711;54.018;9.300;2023-06-22T04:01:33;9.80;;;9.50;;
31045;SDS011;17711;54.018;9.300;2023-06-22T04:04:03;9.80;;;9.50;;
31045;SDS011;17711;54.018;9.300;2023-06-22T04:06:32;10.07;;;9.68;;
31045;SDS011;17711;54.018;9.300;2023-06-22T04:09:01;9.60;;;9.30;;
31045;SDS011;17711;54.018;9.300;2023-06-22T04:11:30;10.52;;;10.13;;
31045;SDS011;17711;54.018;9.300;2023-06-22T04:14:00;9.90;;;9.57;;
31045;SDS011;17711;54.018;9.300;2023-06-22T04:16:29;12.60;;;12.10;;
31045;SDS011;17711;54.018;9.300;2023-06-22T04:18:58;10.18;;;9.77;;
31045;SDS011;17711;54.018;9.300;2023-06-22T04:21:27;11.70;;;11.30;;
31045;SDS011;17711;54.018;9.300;2023-06-22T04:23:56;10.20;;;9.80;;
31045;SDS011;17711;54.018;9.300;2023-06-22T04:26:24;11.75;;;11.35;;
31045;SDS011;17711;54.018;9.300;2023-06-22T04:28:53;10.40;;;10.00;;
31045;SDS011;17711;54.018;9.300;2023-06-22T04:31:26;11.77;;;11.38;;
31045;SDS011;17711;54.018;9.300;2023-06-22T04:33:59;10.50;;;10.10;;
31045;SDS011;17711;54.018;9.300;2023-06-22T04:36:34;10.50;;;10.10;;
31045;SDS011;17711;54.018;9.300;2023-06-22T04:39:06;10.48;;;10.07;;
31045;SDS011;17711;54.018;9.300;2023-06-22T04:41:36;10.80;;;10.40;;
31045;SDS011;17711;54.018;9.300;2023-06-22T04:44:11;10.13;;;9.73;;
31045;SDS011;17711;54.018;9.300;2023-06-22T04:46:42;10.60;;;10.20;;
31045;SDS011;17711;54.018;9.300;2023-06-22T04:49:10;10.60;;;10.20;;
31045;SDS011;17711;54.018;9.300;2023-06-22T04:51:40;10.80;;;10.40;;
31045;SDS011;17711;54.018;9.300;2023-06-22T04:54:09;10.60;;;10.20;;
31045;SDS011;17711;54.018;9.300;2023-06-22T04:56:38;10.85;;;10.45;;
31045;SDS011;17711;54.018;9.300;2023-06-22T04:59:07;10.70;;;10.30;;
31045;SDS011;17711;54.018;9.300;2023-06-22T05:01:39;10.63;;;10.23;;
31045;SDS011;17711;54.018;9.300;2023-06-22T05:04:09;10.25;;;9.85;;
31045;SDS011;17711;54.018;9.300;2023-06-22T05:06:39;11.05;;;10.65;;
31045;SDS011;17711;54.018;9.300;2023-06-22T05:09:08;10.88;;;10.48;;
31045;SDS011;17711;54.018;9.300;2023-06-22T05:11:38;11.30;;;10.90;;
31045;SDS011;17711;54.018;9.300;2023-06-22T05:14:07;10.52;;;10.13;;
31045;SDS011;17711;54.018;9.300;2023-06-22T05:16:37;10.93;;;10.52;;
31045;SDS011;17711;54.018;9.300;2023-06-22T05:19:07;10.95;;;10.55;;
31045;SDS011;17711;54.018;9.300;2023-06-22T05:21:37;16.75;;;16.13;;
31045;SDS011;17711;54.018;9.300;2023-06-22T05:24:05;11.20;;;10.80;;
31045;SDS011;17711;54.018;9.300;2023-06-22T05:26:34;53.08;;;51.00;;
31045;SDS011;17711;54.018;9.300;2023-06-22T05:29:03;11.10;;;10.70;;
31045;SDS011;17711;54.018;9.300;2023-06-22T05:31:33;12.15;;;11.73;;
31045;SDS011;17711;54.018;9.300;2023-06-22T05:34:01;11.50;;;11.10;;
31045;SDS011;17711;54.018;9.300;2023-06-22T05:36:31;13.05;;;12.55;;
31045;SDS011;17711;54.018;9.300;2023-06-22T05:39:09;129.32;;;124.22;;
31045;SDS011;17711;54.018;9.300;2023-06-22T05:41:40;11.73;;;11.32;;
31045;SDS011;17711;54.018;9.300;2023-06-22T05:44:10;11.70;;;11.30;;
31045;SDS011;17711;54.018;9.300;2023-06-22T05:46:40;11.95;;;11.55;;
31045;SDS011;17711;54.018;9.300;2023-06-22T05:49:11;11.32;;;10.93;;
31045;SDS011;17711;54.018;9.300;2023-06-22T05:51:42;11.70;;;11.30;;
31045;SDS011;17711;54.018;9.300;2023-06-22T05:54:10;16.20;;;15.57;;
31045;SDS011;17711;54.018;9.300;2023-06-22T05:56:42;11.70;;;11.30;;
31045;SDS011;17711;54.018;9.300;2023-06-22T05:59:11;11.65;;;11.25;;
31045;SDS011;17711;54.018;9.300;2023-06-22T06:01:40;12.80;;;12.30;;
31045;SDS011;17711;54.018;9.300;2023-06-22T06:04:13;12.27;;;11.85;;
31045;SDS011;17711;54.018;9.300;2023-06-22T06:06:43;11.73;;;11.32;;
31045;SDS011;17711;54.018;9.300;2023-06-22T06:09:14;12.93;;;12.43;;
31045;SDS011;17711;54.018;9.300;2023-06-22T06:11:42;11.90;;;11.50;;
31045;SDS011;17711;54.018;9.300;2023-06-22T06:14:12;12.07;;;11.65;;
31045;SDS011;17711;54.018;9.300;2023-06-22T06:16:41;12.40;;;11.90;;
31045;SDS011;17711;54.018;9.300;2023-06-22T06:19:09;12.05;;;11.65;;
31045;SDS011;17711;54.018;9.300;2023-06-22T06:21:39;15.90;;;15.30;;
31045;SDS011;17711;54.018;9.300;2023-06-22T06:24:09;11.68;;;11.27;;
31045;SDS011;17711;54.018;9.300;2023-06-22T06:26:38;12.02;;;11.63;;
31045;SDS011;17711;54.018;9.300;2023-06-22T06:29:09;12.07;;;11.68;;
31045;SDS011;17711;54.018;9.300;2023-06-22T06:31:40;12.02;;;11.63;;
31045;SDS011;17711;54.018;9.300;2023-06-22T06:34:09;12.02;;;11.63;;
31045;SDS011;17711;54.018;9.300;2023-06-22T06:36:38;12.00;;;11.60;;
31045;SDS011;17711;54.018;9.300;2023-06-22T06:39:10;12.40;;;11.90;;
31045;SDS011;17711;54.018;9.300;2023-06-22T06:41:39;12.45;;;11.95;;
31045;SDS011;17711;54.018;9.300;2023-06-22T06:44:08;12.05;;;11.65;;
31045;SDS011;17711;54.018;9.300;2023-06-22T06:46:36;11.85;;;11.45;;
31045;SDS011;17711;54.018;9.300;2023-06-22T06:49:05;12.10;;;11.70;;
31045;SDS011;17711;54.018;9.300;2023-06-22T06:51:34;12.48;;;11.98;;
31045;SDS011;17711;54.018;9.300;2023-06-22T06:54:03;12.50;;;12.00;;
31045;SDS011;17711;54.018;9.300;2023-06-22T06:56:34;12.40;;;11.90;;
31045;SDS011;17711;54.018;9.300;2023-06-22T06:59:03;12.30;;;11.90;;
31045;SDS011;17711;54.018;9.300;2023-06-22T07:01:31;12.75;;;12.25;;
31045;SDS011;17711;54.018;9.300;2023-06-22T07:04:02;12.25;;;11.82;;
31045;SDS011;17711;54.018;9.300;2023-06-22T07:06:31;12.20;;;11.80;;
31045;SDS011;17711;54.018;9.300;2023-06-22T07:09:00;12.70;;;12.20;;
31045;SDS011;17711;54.018;9.300;2023-06-22T07:11:31;14.85;;;14.25;;
31045;SDS011;17711;54.018;9.300;2023-06-22T07:14:09;13.80;;;13.30;;
31045;SDS011;17711;54.018;9.300;2023-06-22T07:16:38;13.80;;;13.30;;
31045;SDS011;17711;54.018;9.300;2023-06-22T07:19:07;12.90;;;12.40;;
31045;SDS011;17711;54.018;9.300;2023-06-22T07:21:37;13.73;;;13.20;;
31045;SDS011;17711;54.018;9.300;2023-06-22T07:24:06;12.55;;;12.05;;
31045;SDS011;17711;54.018;9.300;2023-06-22T07:26:37;13.30;;;12.80;;
31045;SDS011;17711;54.018;9.300;2023-06-22T07:29:12;13.15;;;12.65;;
31045;SDS011;17711;54.018;9.300;2023-06-22T07:31:44;13.38;;;12.88;;
31045;SDS011;17711;54.018;9.300;2023-06-22T07:34:15;15.48;;;14.90;;
31045;SDS011;17711;54.018;9.300;2023-06-22T07:36:46;14.25;;;13.75;;
31045;SDS011;17711;54.018;9.300;2023-06-22T07:39:14;137.10;;;131.07;;
31045;SDS011;17711;54.018;9.300;2023-06-22T07:41:43;16.67;;;16.08;;
31045;SDS011;17711;54.018;9.300;2023-06-22T07:44:13;15.13;;;14.52;;
31045;SDS011;17711;54.018;9.300;2023-06-22T07:46:42;14.90;;;14.30;;
31045;SDS011;17711;54.018;9.300;2023-06-22T07:49:11;16.02;;;15.43;;
31045;SDS011;17711;54.018;9.300;2023-06-22T07:51:40;15.55;;;14.95;;
31045;SDS011;17711;54.018;9.300;2023-06-22T07:54:10;15.15;;;14.55;;
31045;SDS011;17711;54.018;9.300;2023-06-22T07:56:39;14.25;;;13.75;;
31045;SDS011;17711;54.018;9.300;2023-06-22T07:59:08;14.50;;;14.00;;
31045;SDS011;17711;54.018;9.300;2023-06-22T08:01:39;15.15;;;14.55;;
31045;SDS011;17711;54.018;9.300;2023-06-22T08:04:07;16.88;;;16.27;;
31045;SDS011;17711;54.018;9.300;2023-06-22T08:06:36;14.45;;;13.95;;
31045;SDS011;17711;54.018;9.300;2023-06-22T08:09:06;14.38;;;13.88;;
31045;SDS011;17711;54.018;9.300;2023-06-22T08:11:34;15.88;;;15.27;;
31045;SDS011;17711;54.018;9.300;2023-06-22T08:14:05;15.77;;;15.18;;
31045;SDS011;17711;54.018;9.300;2023-06-22T08:16:34;17.30;;;16.60;;
31045;SDS011;17711;54.018;9.300;2023-06-22T08:19:04;16.80;;;16.20;;
31045;SDS011;17711;54.018;9.300;2023-06-22T08:21:33;409.58;;;390.80;;
31045;SDS011;17711;54.018;9.300;2023-06-22T08:24:03;19.40;;;18.70;;
31045;SDS011;17711;54.018;9.300;2023-06-22T08:26:32;19.40;;;18.70;;
31045;SDS011;17711;54.018;9.300;2023-06-22T08:29:05;23.25;;;22.35;;
31045;SDS011;17711;54.018;9.300;2023-06-22T08:31:34;16.73;;;16.13;;
31045;SDS011;17711;54.018;9.300;2023-06-22T08:34:05;17.63;;;16.92;;
31045;SDS011;17711;54.018;9.300;2023-06-22T08:36:34;21.90;;;21.05;;
31045;SDS011;17711;54.018;9.300;2023-06-22T08:39:08;25.83;;;24.83;;
31045;SDS011;17711;54.018;9.300;2023-06-22T08:41:37;506.25;;;475.30;;
31045;SDS011;17711;54.018;9.300;2023-06-22T08:44:06;27.33;;;26.23;;
31045;SDS011;17711;54.018;9.300;2023-06-22T08:46:35;28.38;;;27.27;;
31045;SDS011;17711;54.018;9.300;2023-06-22T08:49:06;47.22;;;45.33;;
31045;SDS011;17711;54.018;9.300;2023-06-22T08:51:36;28.60;;;27.50;;
31045;SDS011;17711;54.018;9.300;2023-06-22T08:54:06;32.78;;;31.48;;
31045;SDS011;17711;54.018;9.300;2023-06-22T08:56:34;35.20;;;33.80;;
31045;SDS011;17711;54.018;9.300;2023-06-22T08:59:03;33.00;;;31.70;;
31045;SDS011;17711;54.018;9.300;2023-06-22T09:01:34;42.08;;;40.38;;
31045;SDS011;17711;54.018;9.300;2023-06-22T09:04:03;35.28;;;33.88;;
31045;SDS011;17711;54.018;9.300;2023-06-22T09:06:36;46.73;;;44.83;;
31045;SDS011;17711;54.018;9.300;2023-06-22T09:09:08;1999.90;;;999.90;;
31045;SDS011;17711;54.018;9.300;2023-06-22T09:11:37;1999.90;;;999.90;;
31045;SDS011;17711;54.018;9.300;2023-06-22T09:14:05;1999.90;;;999.90;;
31045;SDS011;17711;54.018;9.300;2023-06-22T09:16:35;1999.90;;;999.90;;
31045;SDS011;17711;54.018;9.300;2023-06-22T09:19:03;1999.90;;;999.90;;
31045;SDS011;17711;54.018;9.300;2023-06-22T09:21:32;1999.90;;;999.90;;
31045;SDS011;17711;54.018;9.300;2023-06-22T09:24:03;1999.90;;;999.90;;
31045;SDS011;17711;54.018;9.300;2023-06-22T09:26:32;1999.90;;;999.90;;
31045;SDS011;17711;54.018;9.300;2023-06-22T09:29:01;1999.90;;;999.90;;
31045;SDS011;17711;54.018;9.300;2023-06-22T09:31:32;1999.90;;;999.90;;
31045;SDS011;17711;54.018;9.300;2023-06-22T09:34:01;1999.90;;;999.90;;
31045;SDS011;17711;54.018;9.300;2023-06-22T09:36:33;1999.90;;;999.90;;
31045;SDS011;17711;54.018;9.300;2023-06-22T09:39:03;1999.90;;;999.90;;
31045;SDS011;17711;54.018;9.300;2023-06-22T09:41:33;1999.90;;;999.90;;
31045;SDS011;17711;54.018;9.300;2023-06-22T09:44:02;1999.90;;;999.90;;
31045;SDS011;17711;54.018;9.300;2023-06-22T09:46:30;1999.90;;;999.90;;
31045;SDS011;17711;54.018;9.300;2023-06-22T09:48:59;53.90;;;51.70;;
31045;SDS011;17711;54.018;9.300;2023-06-22T09:51:28;45.42;;;43.42;;
31045;SDS011;17711;54.018;9.300;2023-06-22T09:53:56;1999.90;;;999.90;;
31045;SDS011;17711;54.018;9.300;2023-06-22T09:56:27;1999.90;;;999.90;;
31045;SDS011;17711;54.018;9.300;2023-06-22T09:58:58;1999.90;;;999.90;;
31045;SDS011;17711;54.018;9.300;2023-06-22T10:01:43;1999.90;;;999.90;;
31045;SDS011;17711;54.018;9.300;2023-06-22T10:04:19;31.45;;;30.08;;
31045;SDS011;17711;54.018;9.300;2023-06-22T10:06:48;1999.90;;;999.90;;
31045;SDS011;17711;54.018;9.300;2023-06-22T10:09:17;1999.90;;;999.90;;
31045;SDS011;17711;54.018;9.300;2023-06-22T10:11:47;1999.90;;;999.90;;
31045;SDS011;17711;54.018;9.300;2023-06-22T10:14:16;1999.90;;;999.90;;
31045;SDS011;17711;54.018;9.300;2023-06-22T10:16:44;1999.90;;;999.90;;
31045;SDS011;17711;54.018;9.300;2023-06-22T10:19:13;1999.90;;;999.90;;
31045;SDS011;17711;54.018;9.300;2023-06-22T10:21:42;1999.90;;;999.90;;
31045;SDS011;17711;54.018;9.300;2023-06-22T10:24:11;1999.90;;;999.90;;
31045;SDS011;17711;54.018;9.300;2023-06-22T10:26:42;1999.90;;;999.90;;
31045;SDS011;17711;54.018;9.300;2023-06-22T10:29:12;1999.90;;;999.90;;
31045;SDS011;17711;54.018;9.300;2023-06-22T10:31:43;1999.90;;;999.90;;
31045;SDS011;17711;54.018;9.300;2023-06-22T10:34:21;1999.90;;;999.90;;
31045;SDS011;17711;54.018;9.300;2023-06-22T10:36:51;1999.90;;;999.90;;
31045;SDS011;17711;54.018;9.300;2023-06-22T10:39:19;1999.90;;;999.90;;
31045;SDS011;17711;54.018;9.300;2023-06-22T10:41:48;41.17;;;39.47;;
31045;SDS011;17711;54.018;9.300;2023-06-22T10:44:18;1999.90;;;999.90;;
31045;SDS011;17711;54.018;9.300;2023-06-22T10:46:48;1999.90;;;999.90;;
31045;SDS011;17711;54.018;9.300;2023-06-22T10:49:17;1999.90;;;999.90;;
31045;SDS011;17711;54.018;9.300;2023-06-22T10:51:45;1999.90;;;999.90;;
31045;SDS011;17711;54.018;9.300;2023-06-22T10:54:14;1999.90;;;999.90;;
31045;SDS011;17711;54.018;9.300;2023-06-22T10:56:44;1999.90;;;999.90;;
31045;SDS011;17711;54.018;9.300;2023-06-22T10:59:13;1999.90;;;999.90;;
31045;SDS011;17711;54.018;9.300;2023-06-22T11:01:43;1999.90;;;999.90;;
31045;SDS011;17711;54.018;9.300;2023-06-22T11:04:12;1999.90;;;999.90;;
31045;SDS011;17711;54.018;9.300;2023-06-22T11:06:41;1999.90;;;999.90;;
31045;SDS011;17711;54.018;9.300;2023-06-22T11:09:09;1999.90;;;999.90;;
31045;SDS011;17711;54.018;9.300;2023-06-22T11:11:52;1999.90;;;999.90;;
31045;SDS011;17711;54.018;9.300;2023-06-22T11:14:21;1999.90;;;999.90;;
31045;SDS011;17711;54.018;9.300;2023-06-22T11:16:51;1999.90;;;999.90;;
31045;SDS011;17711;54.018;9.300;2023-06-22T11:19:20;1999.90;;;999.90;;
31045;SDS011;17711;54.018;9.300;2023-06-22T11:21:49;1999.90;;;999.90;;
31045;SDS011;17711;54.018;9.300;2023-06-22T11:24:18;1999.90;;;999.90;;
31045;SDS011;17711;54.018;9.300;2023-06-22T11:26:46;1999.90;;;999.90;;
31045;SDS011;17711;54.018;9.300;2023-06-22T11:29:15;49.00;;;46.78;;
31045;SDS011;17711;54.018;9.300;2023-06-22T11:34:30;1999.90;;;999.90;;
31045;SDS011;17711;54.018;9.300;2023-06-22T11:36:58;1999.90;;;999.90;;
31045;SDS011;17711;54.018;9.300;2023-06-22T11:39:31;1999.90;;;999.90;;
31045;SDS011;17711;54.018;9.300;2023-06-22T11:42:08;1999.90;;;999.90;;
31045;SDS011;17711;54.018;9.300;2023-06-22T11:44:37;516.95;;;266.27;;
31045;SDS011;17711;54.018;9.300;2023-06-22T11:47:07;78.43;;;75.22;;
31045;SDS011;17711;54.018;9.300;2023-06-22T11:49:37;44.03;;;42.22;;
31045;SDS011;17711;54.018;9.300;2023-06-22T11:52:07;40.70;;;39.00;;
31045;SDS011;17711;54.018;9.300;2023-06-22T11:54:36;1999.90;;;999.90;;
31045;SDS011;17711;54.018;9.300;2023-06-22T11:57:06;1999.90;;;999.90;;
31045;SDS011;17711;54.018;9.300;2023-06-22T11:59:34;1999.90;;;999.90;;
31045;SDS011;17711;54.018;9.300;2023-06-22T12:02:03;1999.90;;;999.90;;
31045;SDS011;17711;54.018;9.300;2023-06-22T12:04:35;1999.90;;;999.90;;
31045;SDS011;17711;54.018;9.300;2023-06-22T12:07:04;1999.90;;;999.90;;
31045;SDS011;17711;54.018;9.300;2023-06-22T12:09:35;1999.90;;;999.90;;
31045;SDS011;17711;54.018;9.300;2023-06-22T12:12:04;1999.90;;;999.90;;
31045;SDS011;17711;54.018;9.300;2023-06-22T12:14:34;1999.90;;;999.90;;
31045;SDS011;17711;54.018;9.300;2023-06-22T12:17:02;1999.90;;;999.90;;
31045;SDS011;17711;54.018;9.300;2023-06-22T12:19:31;1999.90;;;999.90;;
31045;SDS011;17711;54.018;9.300;2023-06-22T12:22:01;1999.90;;;999.90;;
31045;SDS011;17711;54.018;9.300;2023-06-22T12:24:30;1999.90;;;999.90;;
31045;SDS011;17711;54.018;9.300;2023-06-22T12:26:59;1999.90;;;999.90;;
31045;SDS011;17711;54.018;9.300;2023-06-22T12:29:29;1999.90;;;999.90;;
31045;SDS011;17711;54.018;9.300;2023-06-22T12:31:58;1999.90;;;999.90;;
31045;SDS011;17711;54.018;9.300;2023-06-22T12:34:27;1999.90;;;999.90;;
31045;SDS011;17711;54.018;9.300;2023-06-22T12:36:57;1999.90;;;999.90;;
31045;SDS011;17711;54.018;9.300;2023-06-22T12:39:27;1999.90;;;999.90;;
31045;SDS011;17711;54.018;9.300;2023-06-22T12:41:56;1999.90;;;999.90;;
31045;SDS011;17711;54.018;9.300;2023-06-22T12:44:25;1999.90;;;999.90;;
31045;SDS011;17711;54.018;9.300;2023-06-22T12:46:53;1999.90;;;999.90;;
31045;SDS011;17711;54.018;9.300;2023-06-22T12:49:22;1999.90;;;999.90;;
31045;SDS011;17711;54.018;9.300;2023-06-22T12:51:51;1999.90;;;999.90;;
31045;SDS011;17711;54.018;9.300;2023-06-22T12:54:20;1999.90;;;999.90;;
31045;SDS011;17711;54.018;9.300;2023-06-22T12:56:51;1999.90;;;999.90;;
31045;SDS011;17711;54.018;9.300;2023-06-22T12:59:21;1999.90;;;999.90;;
31045;SDS011;17711;54.018;9.300;2023-06-22T13:01:50;1999.90;;;999.90;;
31045;SDS011;17711;54.018;9.300;2023-06-22T13:04:19;1999.90;;;999.90;;
31045;SDS011;17711;54.018;9.300;2023-06-22T13:06:48;1999.90;;;999.90;;
31045;SDS011;17711;54.018;9.300;2023-06-22T13:09:18;1999.90;;;999.90;;
31045;SDS011;17711;54.018;9.300;2023-06-22T13:11:47;1999.90;;;999.90;;
31045;SDS011;17711;54.018;9.300;2023-06-22T13:14:17;1999.90;;;999.90;;
31045;SDS011;17711;54.018;9.300;2023-06-22T13:16:48;46.90;;;45.00;;
31045;SDS011;17711;54.018;9.300;2023-06-22T13:19:17;1999.90;;;999.90;;
31045;SDS011;17711;54.018;9.300;2023-06-22T13:21:45;46.00;;;44.10;;
31045;SDS011;17711;54.018;9.300;2023-06-22T13:24:14;41.50;;;39.72;;
31045;SDS011;17711;54.018;9.300;2023-06-22T13:26:43;43.10;;;41.30;;
31045;SDS011;17711;54.018;9.300;2023-06-22T13:29:14;65.10;;;61.45;;
31045;SDS011;17711;54.018;9.300;2023-06-22T13:31:44;54.38;;;52.13;;
31045;SDS011;17711;54.018;9.300;2023-06-22T13:34:13;39.50;;;37.83;;
31045;SDS011;17711;54.018;9.300;2023-06-22T13:36:42;39.47;;;37.88;;
31045;SDS011;17711;54.018;9.300;2023-06-22T13:39:13;58.95;;;56.55;;
31045;SDS011;17711;54.018;9.300;2023-06-22T13:41:42;36.45;;;34.95;;
31045;SDS011;17711;54.018;9.300;2023-06-22T13:44:10;36.00;;;34.50;;
31045;SDS011;17711;54.018;9.300;2023-06-22T13:46:39;36.38;;;34.88;;
31045;SDS011;17711;54.018;9.300;2023-06-22T13:49:09;947.03;;;870.13;;
31045;SDS011;17711;54.018;9.300;2023-06-22T13:51:40;36.92;;;35.35;;
31045;SDS011;17711;54.018;9.300;2023-06-22T13:54:08;87.18;;;83.10;;
31045;SDS011;17711;54.018;9.300;2023-06-22T13:56:54;36.40;;;34.90;;
31045;SDS011;17711;54.018;9.300;2023-06-22T13:59:23;42.80;;;40.80;;
31045;SDS011;17711;54.018;9.300;2023-06-22T14:01:53;44.50;;;42.65;;
31045;SDS011;17711;54.018;9.300;2023-06-22T14:04:24;47.67;;;45.47;;
31045;SDS011;17711;54.018;9.300;2023-06-22T14:06:54;43.05;;;41.25;;
31045;SDS011;17711;54.018;9.300;2023-06-22T14:09:23;47.38;;;45.17;;
31045;SDS011;17711;54.018;9.300;2023-06-22T14:11:53;44.13;;;42.33;;
31045;SDS011;17711;54.018;9.300;2023-06-22T14:14:22;47.50;;;45.25;;
31045;SDS011;17711;54.018;9.300;2023-06-22T14:16:53;39.72;;;38.13;;
31045;SDS011;17711;54.018;9.300;2023-06-22T14:19:23;71.82;;;68.55;;
31045;SDS011;17711;54.018;9.300;2023-06-22T14:21:52;221.40;;;201.02;;
31045;SDS011;17711;54.018;9.300;2023-06-22T14:24:21;51.50;;;49.10;;
31045;SDS011;17711;54.018;9.300;2023-06-22T14:27:10;46.80;;;44.83;;
31045;SDS011;17711;54.018;9.300;2023-06-22T14:29:39;35.45;;;33.80;;
31045;SDS011;17711;54.018;9.300;2023-06-22T14:32:08;38.97;;;37.15;;
31045;SDS011;17711;54.018;9.300;2023-06-22T14:34:38;50.42;;;47.45;;
31045;SDS011;17711;54.018;9.300;2023-06-22T14:37:07;35.33;;;33.75;;